createdAt,value
2022-12-26T00:00:31.735Z,9.60
2022-12-26T00:05:37.434Z,9.51
2022-12-26T00:10:39.675Z,9.54
2022-12-26T00:15:42.279Z,9.45
2022-12-26T00:20:44.391Z,9.46
2022-12-26T00:25:46.515Z,9.63
2022-12-26T00:30:48.665Z,9.34
2022-12-26T00:35:50.819Z,8.98
2022-12-26T00:40:52.960Z,8.48
2022-12-26T00:45:55.104Z,8.32
2022-12-26T00:50:57.979Z,8.20
2022-12-26T00:56:00.132Z,8.16
2022-12-26T01:01:16.038Z,8.12
2022-12-26T01:06:18.930Z,8.13
2022-12-26T01:11:41.459Z,8.14
2022-12-26T01:16:46.463Z,8.07
2022-12-26T01:21:48.697Z,7.96
2022-12-26T01:26:50.903Z,8.30
2022-12-26T01:31:53.125Z,8.33
2022-12-26T01:36:55.339Z,8.33
2022-12-26T01:41:57.480Z,8.27
2022-12-26T01:46:59.619Z,8.22
2022-12-26T01:52:08.596Z,8.08
2022-12-26T01:57:17.569Z,7.93
2022-12-26T02:02:22.406Z,7.78
2022-12-26T02:07:26.152Z,7.67
2022-12-26T02:12:38.906Z,7.49
2022-12-26T02:17:42.399Z,7.41
2022-12-26T02:23:13.697Z,7.22
2022-12-26T02:29:01.000Z,7.17
2022-12-26T02:34:38.633Z,7.03
2022-12-26T02:39:56.619Z,6.77
2022-12-26T02:45:28.297Z,6.86
2022-12-26T02:51:31.463Z,6.72
2022-12-26T02:57:00.689Z,6.77
2022-12-26T03:02:24.251Z,6.57
2022-12-26T03:08:07.360Z,6.36
2022-12-26T03:13:17.328Z,6.36
2022-12-26T03:18:57.590Z,6.40
2022-12-26T03:23:47.459Z,6.33
2022-12-26T03:28:49.664Z,6.25
2022-12-26T03:34:10.593Z,6.20
2022-12-26T03:39:15.730Z,6.05
2022-12-26T03:45:22.152Z,6.01
2022-12-26T03:50:54.804Z,5.91
2022-12-26T03:56:32.837Z,5.65
2022-12-26T04:01:57.461Z,5.44
2022-12-26T04:07:28.759Z,5.60
2022-12-26T04:12:52.189Z,5.55
2022-12-26T04:18:18.799Z,5.61
2022-12-26T04:24:04.881Z,5.68
2022-12-26T04:29:25.701Z,5.56
2022-12-26T04:35:04.334Z,5.32
2022-12-26T04:40:30.771Z,5.27
2022-12-26T04:45:34.594Z,5.54
2022-12-26T04:50:36.810Z,5.29
2022-12-26T04:55:38.991Z,5.23
2022-12-26T05:00:41.236Z,5.18
2022-12-26T05:06:04.287Z,5.15
2022-12-26T05:11:06.521Z,5.05
2022-12-26T05:16:27.425Z,5.20
2022-12-26T05:21:48.425Z,5.22
2022-12-26T05:27:09.215Z,5.50
2022-12-26T05:32:11.506Z,5.72
2022-12-26T05:37:13.651Z,5.46
2022-12-26T05:42:15.785Z,5.57
2022-12-26T05:47:17.981Z,5.38
2022-12-26T05:52:20.141Z,5.60
2022-12-26T05:57:22.245Z,5.69
2022-12-26T06:02:24.453Z,5.68
2022-12-26T06:07:26.650Z,5.85
2022-12-26T06:12:28.857Z,5.96
2022-12-26T06:17:31.044Z,6.02
2022-12-26T06:22:33.208Z,5.94
2022-12-26T06:27:35.382Z,5.98
2022-12-26T06:32:37.543Z,6.03
2022-12-26T06:37:39.785Z,6.11
2022-12-26T06:42:41.956Z,6.25
2022-12-26T06:47:45.077Z,6.45
2022-12-26T06:52:47.283Z,6.63
2022-12-26T06:57:52.454Z,6.80
2022-12-26T07:02:54.711Z,6.90
2022-12-26T07:07:57.053Z,6.72
2022-12-26T07:12:59.232Z,6.61
2022-12-26T07:18:01.370Z,6.87
2022-12-26T07:23:03.516Z,7.02
2022-12-26T07:28:05.795Z,7.22
2022-12-26T07:33:08.043Z,7.31
2022-12-26T07:38:11.167Z,7.46
2022-12-26T07:43:13.307Z,7.61
2022-12-26T07:48:15.520Z,7.75
2022-12-26T07:53:17.664Z,7.77
2022-12-26T07:58:19.774Z,7.70
2022-12-26T08:03:22.248Z,7.69
2022-12-26T08:08:24.644Z,7.91
2022-12-26T08:13:28.223Z,8.04
2022-12-26T08:18:30.393Z,8.28
2022-12-26T08:23:34.042Z,8.09
2022-12-26T08:28:36.435Z,8.13
2022-12-26T08:33:38.615Z,8.28
2022-12-26T08:38:41.223Z,8.47
2022-12-26T08:44:25.171Z,8.50
2022-12-26T08:49:06.083Z,8.65
2022-12-26T08:54:08.413Z,8.26
2022-12-26T08:59:10.546Z,8.62
2022-12-26T09:04:12.773Z,8.94
2022-12-26T09:09:15.048Z,9.14
2022-12-26T09:14:17.176Z,9.16
2022-12-26T09:19:21.221Z,8.99
2022-12-26T09:24:23.407Z,9.20
2022-12-26T09:29:25.595Z,9.28
2022-12-26T09:34:27.771Z,9.31
2022-12-26T09:39:29.898Z,9.31
2022-12-26T09:44:48.457Z,9.16
2022-12-26T09:49:59.469Z,9.23
2022-12-26T09:55:06.988Z,9.47
2022-12-26T10:00:20.093Z,9.64
2022-12-26T10:05:26.371Z,9.59
2022-12-26T10:10:39.747Z,9.33
2022-12-26T10:16:03.569Z,9.34
2022-12-26T10:21:43.070Z,9.67
2022-12-26T10:27:01.895Z,9.51
2022-12-26T10:32:08.671Z,9.86
2022-12-26T10:37:35.694Z,10.08
2022-12-26T10:42:43.814Z,10.02
2022-12-26T10:47:48.283Z,10.11
2022-12-26T10:52:51.600Z,10.12
2022-12-26T10:57:54.564Z,10.01
2022-12-26T11:03:10.645Z,10.15
2022-12-26T11:08:12.883Z,10.33
2022-12-26T11:13:23.450Z,9.98
2022-12-26T11:18:49.125Z,10.26
2022-12-26T11:23:53.933Z,10.34
2022-12-26T11:29:16.066Z,10.36
2022-12-26T11:34:24.560Z,10.42
2022-12-26T11:39:39.412Z,10.12
2022-12-26T11:44:45.703Z,10.25
2022-12-26T11:49:58.373Z,10.34
2022-12-26T11:55:01.217Z,10.72
2022-12-26T12:00:22.240Z,10.96
2022-12-26T12:05:44.584Z,11.32
2022-12-26T12:10:59.902Z,11.06
2022-12-26T12:16:20.467Z,11.32
2022-12-26T12:21:28.920Z,11.54
2022-12-26T12:26:35.133Z,11.50
2022-12-26T12:31:37.360Z,11.09
2022-12-26T12:37:15.920Z,11.28
2022-12-26T12:42:37.053Z,11.81
2022-12-26T12:48:00.152Z,12.77
2022-12-26T12:53:27.027Z,13.54
2022-12-26T12:58:35.426Z,13.63
2022-12-26T13:03:55.680Z,13.61
2022-12-26T13:09:05.015Z,13.69
2022-12-26T13:14:25.120Z,13.69
2022-12-26T13:19:41.815Z,13.64
2022-12-26T13:24:47.139Z,12.80
2022-12-26T13:29:49.530Z,12.10
2022-12-26T13:34:55.596Z,11.81
2022-12-26T13:39:59.631Z,11.26
2022-12-26T13:45:47.560Z,10.94
2022-12-26T13:51:01.076Z,10.70
2022-12-26T13:56:18.459Z,10.31
2022-12-26T14:01:55.420Z,9.91
2022-12-26T14:07:29.012Z,9.55
2022-12-26T14:12:53.432Z,9.23
2022-12-26T14:18:20.564Z,9.15
2022-12-26T14:23:45.760Z,9.00
2022-12-26T14:28:47.797Z,9.13
2022-12-26T14:34:21.587Z,8.96
2022-12-26T14:39:23.750Z,8.67
2022-12-26T14:44:25.807Z,8.54
2022-12-26T14:49:35.405Z,7.98
2022-12-26T14:54:40.673Z,8.32
2022-12-26T15:00:16.126Z,7.97
2022-12-26T15:05:28.557Z,7.77
2022-12-26T15:10:53.944Z,7.43
2022-12-26T15:16:36.480Z,7.47
2022-12-26T15:21:46.413Z,7.48
2022-12-26T15:26:57.685Z,7.50
2022-12-26T15:32:13.342Z,7.67
2022-12-26T15:37:18.936Z,7.54
2022-12-26T15:42:42.747Z,7.21
2022-12-26T15:48:03.166Z,6.81
2022-12-26T15:53:40.644Z,6.77
2022-12-26T15:59:13.690Z,6.72
2022-12-26T16:04:32.261Z,6.59
2022-12-26T16:09:46.417Z,6.36
2022-12-26T16:14:49.198Z,6.23
2022-12-26T16:19:52.658Z,6.10
2022-12-26T16:24:55.362Z,6.15
2022-12-26T16:30:11.891Z,6.07
2022-12-26T16:35:21.963Z,6.02
2022-12-26T16:40:25.873Z,6.27
2022-12-26T16:45:31.034Z,6.32
2022-12-26T16:50:34.918Z,6.35
2022-12-26T16:55:43.413Z,6.55
2022-12-26T17:00:48.958Z,6.64
2022-12-26T17:05:51.203Z,6.85
2022-12-26T17:10:53.803Z,6.89
2022-12-26T17:15:58.821Z,6.79
2022-12-26T17:21:21.764Z,6.70
2022-12-26T17:26:28.416Z,7.07
2022-12-26T17:31:44.831Z,7.09
2022-12-26T17:42:12.914Z,7.11
2022-12-26T17:47:24.425Z,7.08
2022-12-26T17:52:29.404Z,6.89
2022-12-26T17:57:31.749Z,6.71
2022-12-26T18:02:34.442Z,6.56
2022-12-26T18:07:37.058Z,6.63
2022-12-26T18:12:39.210Z,6.56
2022-12-26T18:17:42.038Z,6.49
2022-12-26T18:22:51.389Z,6.50
2022-12-26T18:27:53.837Z,6.49
2022-12-26T18:32:56.078Z,6.54
2022-12-26T18:37:58.327Z,6.51
2022-12-26T18:43:01.814Z,6.53
2022-12-26T18:48:05.244Z,6.40
2022-12-26T18:53:07.411Z,6.41
2022-12-26T18:58:12.415Z,6.41
2022-12-26T19:03:14.609Z,6.24
2022-12-26T19:08:16.753Z,6.45
2022-12-26T19:13:18.972Z,6.50
2022-12-26T19:18:21.159Z,6.68
2022-12-26T19:23:23.384Z,6.53
2022-12-26T19:28:25.504Z,6.64
2022-12-26T19:33:27.634Z,6.61
2022-12-26T19:38:29.789Z,6.75
2022-12-26T19:43:32.175Z,6.86
2022-12-26T19:48:35.907Z,6.98
2022-12-26T19:53:38.789Z,7.04
2022-12-26T19:58:41.346Z,6.95
2022-12-26T20:03:43.645Z,7.07
2022-12-26T20:08:47.431Z,7.18
2022-12-26T20:13:50.332Z,7.31
2022-12-26T20:18:52.841Z,7.01
2022-12-26T20:24:00.367Z,7.32
2022-12-26T20:29:02.779Z,7.40
2022-12-26T20:34:05.568Z,7.39
2022-12-26T20:39:12.530Z,7.57
2022-12-26T20:44:16.361Z,7.60
2022-12-26T20:49:18.679Z,7.47
2022-12-26T20:54:20.919Z,7.42
2022-12-26T20:59:23.614Z,7.47
2022-12-26T21:04:25.977Z,7.23
2022-12-26T21:09:28.148Z,6.96
2022-12-26T21:14:30.476Z,7.32
2022-12-26T21:19:38.718Z,7.19
2022-12-26T21:24:40.957Z,7.08
2022-12-26T21:29:43.120Z,7.17
2022-12-26T21:34:45.613Z,7.05
2022-12-26T21:39:49.614Z,7.12
2022-12-26T21:44:52.036Z,6.97
2022-12-26T21:49:54.175Z,6.99
2022-12-26T21:55:14.994Z,6.90
2022-12-26T22:00:17.308Z,7.04
2022-12-26T22:05:21.884Z,6.97
2022-12-26T22:10:44.530Z,7.15
2022-12-26T22:16:05.035Z,7.13
2022-12-26T22:21:10.401Z,6.99
2022-12-26T22:26:15.511Z,7.04
2022-12-26T22:31:28.317Z,7.02
2022-12-26T22:36:31.605Z,7.00
2022-12-26T22:41:34.341Z,7.25
2022-12-26T22:46:36.894Z,7.49
2022-12-26T22:51:39.440Z,7.16
2022-12-26T22:56:41.578Z,6.81
2022-12-26T23:01:44.733Z,7.21
2022-12-26T23:06:47.366Z,6.97
2022-12-26T23:12:08.408Z,7.15
2022-12-26T23:17:34.873Z,6.98
2022-12-26T23:22:37.309Z,7.25
2022-12-26T23:27:58.156Z,7.28
2022-12-26T23:33:00.356Z,7.18
2022-12-26T23:38:02.555Z,7.18
2022-12-26T23:43:04.712Z,7.46
2022-12-26T23:48:06.879Z,7.44
2022-12-26T23:53:09.013Z,7.30
2022-12-26T23:58:11.130Z,7.26
